Malay Falls, Nova Scotia

6:59 AM ADT on May 30, 2015 (GMT -0300)
Spanish Ship Bay | | Change Station
CLOSE
Current Station
Personal Weather Station
Location: Guysborough County, NOVA SCOTIA
Elevation: 50 ft
Nearby Weather Stations

Elev 50 ft 45.03 °N, 62.03 °W | Updated 10 minutes ago

Fog
Fog
46.3 °F
Feels Like 46 °F
N
1.0
Wind Variable Wind from East
Gusts 3.0 mph

Today is forecast to be nearly the same temperature as yesterday.

Today
High -- | Low -- °F
--% Chance of Precip.
Yesterday
High -- | Low -- °F
Precip. -- in
5:27 AM 8:47 PM
Waxing Gibbous, 89% visible
Pressure 30.23 in
Visibility 0.2 miles
Clouds
Windchill 46 °F
Dew Point 46 °F
Humidity 98%
Rainfall 0.00 in
Snow Depth Not available.
UV Not available.
Pollen Not available.
Air Quality Not available.
Flu Activity Not available.
SPECI CYHZ 300930Z 16004KT 1/4SM R14/3500FT/N R23/2200FT/N FG VV001 10/10 A3022 RMK FG8 SLP235

More Conditions Fewer Conditions

Pressure 30.23 in
Visibility 0.2 miles
Clouds
Windchill 46 °F
Dew Point 46 °F
Humidity 98%
Rainfall 0.00 in
Snow Depth Not available.
UV Not available.
Pollen Not available.
Air Quality Not available.
Flu Activity Not available.
SPECI CYHZ 300930Z 16004KT 1/4SM R14/3500FT/N R23/2200FT/N FG VV001 10/10 A3022 RMK FG8 SLP235

More Conditions Fewer Conditions

10-Day Weather Forecast

Almanac

Astronomy

May. 30, 2015 Rise Set
Actual Time
Civil Twilight
Nautical Twilight
Astronomical Twilight
Moon
Length of Visible Light
Length of Day
Tomorrow will be .
, % of the Moon is Illuminated

Today's Extremes

Country Highs Country Lows

Community

WunderPhotos

Upload Photos

1,825,476 photos uploaded!

WunderBlogs® & News

Nearby

Air Quality

  Air Quality AQ Index Pollutant
Not available.

Snow Depth

Station Depth Elevation

Earthquake Activity

City Distance Mag. Time & Date
Minimum magnitude displayed is 2.5.

Coastal Water Temperatures

Place Temperature

Stations

Nearby Weather Stations

Station Location Temp. Windchill Dew Point Humidity Wind Precip. Elev Updated Type